Terminal Aerodrome Forecast
Issued by NWS Newport/Morehead City, NC

Home | Current Version | Previous Version | Text Only | Print | Product List | Glossary Off
Versions: 1 2 3 4 5 6 7 8 9 10 11 12 13 14

000
FTUS42 KMHX 151720
TAFEWN
TAF
KEWN 151720Z 1518/1618 04010G15KT P6SM VCSH SCT015 BKN035
     FM160000 04010KT 6SM -RA BKN015
     FM160500 04008KT P6SM VCSH OVC010
     FM161000 08010KT P6SM VCSH OVC020=

USA.gov is the U.S. government's official web portal to all federal, state and local government web resources and services.